sensor_id;sensor_type;location;lat;lon;timestamp;P1;durP1;ratioP1;P2;durP2;ratioP2
18726;SDS011;9492;51.888;5.186;2023-11-21T00:00:26;15.03;;;7.67;;
18726;SDS011;9492;51.888;5.186;2023-11-21T00:02:52;12.17;;;7.50;;
18726;SDS011;9492;51.888;5.186;2023-11-21T00:05:18;16.47;;;9.00;;
18726;SDS011;9492;51.888;5.186;2023-11-21T00:07:44;10.67;;;7.57;;
18726;SDS011;9492;51.888;5.186;2023-11-21T00:10:10;14.27;;;8.27;;
18726;SDS011;9492;51.888;5.186;2023-11-21T00:12:39;13.60;;;7.70;;
18726;SDS011;9492;51.888;5.186;2023-11-21T00:15:07;13.53;;;8.13;;
18726;SDS011;9492;51.888;5.186;2023-11-21T00:17:36;12.67;;;7.50;;
18726;SDS011;9492;51.888;5.186;2023-11-21T00:20:03;11.67;;;7.30;;
18726;SDS011;9492;51.888;5.186;2023-11-21T00:22:31;10.77;;;6.93;;
18726;SDS011;9492;51.888;5.186;2023-11-21T00:24:57;12.23;;;7.10;;
18726;SDS011;9492;51.888;5.186;2023-11-21T00:27:23;10.00;;;6.73;;
18726;SDS011;9492;51.888;5.186;2023-11-21T00:29:49;11.00;;;7.10;;
18726;SDS011;9492;51.888;5.186;2023-11-21T00:32:15;12.47;;;7.27;;
18726;SDS011;9492;51.888;5.186;2023-11-21T00:34:41;8.47;;;5.77;;
18726;SDS011;9492;51.888;5.186;2023-11-21T00:37:07;8.70;;;5.10;;
18726;SDS011;9492;51.888;5.186;2023-11-21T00:39:33;8.97;;;5.20;;
18726;SDS011;9492;51.888;5.186;2023-11-21T00:42:00;6.30;;;4.73;;
18726;SDS011;9492;51.888;5.186;2023-11-21T00:44:26;5.23;;;4.67;;
18726;SDS011;9492;51.888;5.186;2023-11-21T00:46:52;5.90;;;4.77;;
18726;SDS011;9492;51.888;5.186;2023-11-21T00:49:19;6.97;;;5.07;;
18726;SDS011;9492;51.888;5.186;2023-11-21T00:51:45;7.07;;;4.83;;
18726;SDS011;9492;51.888;5.186;2023-11-21T00:54:11;7.20;;;4.27;;
18726;SDS011;9492;51.888;5.186;2023-11-21T00:56:37;7.60;;;4.23;;
18726;SDS011;9492;51.888;5.186;2023-11-21T00:59:05;4.10;;;3.13;;
18726;SDS011;9492;51.888;5.186;2023-11-21T01:01:32;3.43;;;3.13;;
18726;SDS011;9492;51.888;5.186;2023-11-21T01:03:58;4.57;;;3.20;;
18726;SDS011;9492;51.888;5.186;2023-11-21T01:06:24;8.53;;;3.80;;
18726;SDS011;9492;51.888;5.186;2023-11-21T01:08:50;5.53;;;3.33;;
18726;SDS011;9492;51.888;5.186;2023-11-21T01:11:16;3.50;;;3.20;;
18726;SDS011;9492;51.888;5.186;2023-11-21T01:13:42;5.20;;;3.63;;
18726;SDS011;9492;51.888;5.186;2023-11-21T01:16:09;4.37;;;3.80;;
18726;SDS011;9492;51.888;5.186;2023-11-21T01:18:36;4.40;;;3.67;;
18726;SDS011;9492;51.888;5.186;2023-11-21T01:21:02;6.47;;;4.47;;
18726;SDS011;9492;51.888;5.186;2023-11-21T01:23:29;6.80;;;4.30;;
18726;SDS011;9492;51.888;5.186;2023-11-21T01:25:56;5.53;;;3.93;;
18726;SDS011;9492;51.888;5.186;2023-11-21T01:28:22;5.37;;;4.37;;
18726;SDS011;9492;51.888;5.186;2023-11-21T01:30:48;7.03;;;4.60;;
18726;SDS011;9492;51.888;5.186;2023-11-21T01:33:14;7.93;;;5.10;;
18726;SDS011;9492;51.888;5.186;2023-11-21T01:35:41;6.50;;;4.47;;
18726;SDS011;9492;51.888;5.186;2023-11-21T01:38:07;5.47;;;4.23;;
18726;SDS011;9492;51.888;5.186;2023-11-21T01:40:33;5.53;;;4.23;;
18726;SDS011;9492;51.888;5.186;2023-11-21T01:42:59;7.87;;;4.53;;
18726;SDS011;9492;51.888;5.186;2023-11-21T01:45:28;6.63;;;4.17;;
18726;SDS011;9492;51.888;5.186;2023-11-21T01:47:56;5.60;;;4.17;;
18726;SDS011;9492;51.888;5.186;2023-11-21T01:50:24;5.40;;;4.33;;
18726;SDS011;9492;51.888;5.186;2023-11-21T01:52:50;10.90;;;5.37;;
18726;SDS011;9492;51.888;5.186;2023-11-21T01:55:17;7.60;;;4.43;;
18726;SDS011;9492;51.888;5.186;2023-11-21T01:57:43;7.27;;;4.63;;
18726;SDS011;9492;51.888;5.186;2023-11-21T02:00:11;9.13;;;4.60;;
18726;SDS011;9492;51.888;5.186;2023-11-21T02:02:46;5.93;;;4.03;;
18726;SDS011;9492;51.888;5.186;2023-11-21T02:05:16;5.23;;;3.47;;
18726;SDS011;9492;51.888;5.186;2023-11-21T02:07:47;5.40;;;3.60;;
18726;SDS011;9492;51.888;5.186;2023-11-21T02:10:13;3.80;;;3.30;;
18726;SDS011;9492;51.888;5.186;2023-11-21T02:12:40;3.37;;;3.00;;
18726;SDS011;9492;51.888;5.186;2023-11-21T02:15:07;4.17;;;2.90;;
18726;SDS011;9492;51.888;5.186;2023-11-21T02:17:40;6.00;;;3.63;;
18726;SDS011;9492;51.888;5.186;2023-11-21T02:20:06;3.37;;;2.93;;
18726;SDS011;9492;51.888;5.186;2023-11-21T02:22:32;4.80;;;3.60;;
18726;SDS011;9492;51.888;5.186;2023-11-21T02:25:00;4.67;;;3.40;;
18726;SDS011;9492;51.888;5.186;2023-11-21T02:27:27;5.40;;;3.97;;
18726;SDS011;9492;51.888;5.186;2023-11-21T02:29:56;8.97;;;4.60;;
18726;SDS011;9492;51.888;5.186;2023-11-21T02:32:23;4.30;;;3.57;;
18726;SDS011;9492;51.888;5.186;2023-11-21T02:34:51;6.23;;;4.00;;
18726;SDS011;9492;51.888;5.186;2023-11-21T02:37:17;5.07;;;4.20;;
18726;SDS011;9492;51.888;5.186;2023-11-21T02:39:43;5.20;;;3.80;;
18726;SDS011;9492;51.888;5.186;2023-11-21T02:42:09;6.20;;;4.00;;
18726;SDS011;9492;51.888;5.186;2023-11-21T02:44:35;4.90;;;3.77;;
18726;SDS011;9492;51.888;5.186;2023-11-21T02:47:00;6.83;;;4.90;;
18726;SDS011;9492;51.888;5.186;2023-11-21T02:49:26;6.53;;;5.23;;
18726;SDS011;9492;51.888;5.186;2023-11-21T02:51:53;7.03;;;4.73;;
18726;SDS011;9492;51.888;5.186;2023-11-21T02:54:22;7.03;;;5.13;;
18726;SDS011;9492;51.888;5.186;2023-11-21T02:56:48;7.37;;;5.00;;
18726;SDS011;9492;51.888;5.186;2023-11-21T02:59:15;6.73;;;4.73;;
18726;SDS011;9492;51.888;5.186;2023-11-21T03:01:41;8.90;;;5.10;;
18726;SDS011;9492;51.888;5.186;2023-11-21T03:04:07;7.73;;;5.37;;
18726;SDS011;9492;51.888;5.186;2023-11-21T03:06:33;7.67;;;5.03;;
18726;SDS011;9492;51.888;5.186;2023-11-21T03:08:59;7.33;;;5.10;;
18726;SDS011;9492;51.888;5.186;2023-11-21T03:11:25;10.30;;;5.97;;
18726;SDS011;9492;51.888;5.186;2023-11-21T03:13:51;9.20;;;6.37;;
18726;SDS011;9492;51.888;5.186;2023-11-21T03:16:18;7.77;;;5.80;;
18726;SDS011;9492;51.888;5.186;2023-11-21T03:18:44;11.37;;;7.27;;
18726;SDS011;9492;51.888;5.186;2023-11-21T03:21:11;8.97;;;6.10;;
18726;SDS011;9492;51.888;5.186;2023-11-21T03:23:38;9.07;;;5.93;;
18726;SDS011;9492;51.888;5.186;2023-11-21T03:26:04;9.93;;;6.87;;
18726;SDS011;9492;51.888;5.186;2023-11-21T03:28:33;11.80;;;6.80;;
18726;SDS011;9492;51.888;5.186;2023-11-21T03:30:59;10.30;;;6.73;;
18726;SDS011;9492;51.888;5.186;2023-11-21T03:33:25;11.83;;;7.10;;
18726;SDS011;9492;51.888;5.186;2023-11-21T03:35:51;10.53;;;7.00;;
18726;SDS011;9492;51.888;5.186;2023-11-21T03:38:18;9.67;;;6.83;;
18726;SDS011;9492;51.888;5.186;2023-11-21T03:40:44;11.77;;;7.27;;
18726;SDS011;9492;51.888;5.186;2023-11-21T03:43:10;11.27;;;7.30;;
18726;SDS011;9492;51.888;5.186;2023-11-21T03:45:36;10.27;;;6.67;;
18726;SDS011;9492;51.888;5.186;2023-11-21T03:48:02;12.27;;;7.13;;
18726;SDS011;9492;51.888;5.186;2023-11-21T03:50:28;8.23;;;6.07;;
18726;SDS011;9492;51.888;5.186;2023-11-21T03:52:54;10.97;;;6.30;;
18726;SDS011;9492;51.888;5.186;2023-11-21T03:55:20;10.50;;;6.87;;
18726;SDS011;9492;51.888;5.186;2023-11-21T03:57:48;8.63;;;7.10;;
18726;SDS011;9492;51.888;5.186;2023-11-21T04:00:14;12.93;;;6.80;;
18726;SDS011;9492;51.888;5.186;2023-11-21T04:02:41;11.63;;;7.60;;
18726;SDS011;9492;51.888;5.186;2023-11-21T04:05:07;10.87;;;6.83;;
18726;SDS011;9492;51.888;5.186;2023-11-21T04:07:34;10.20;;;7.13;;
18726;SDS011;9492;51.888;5.186;2023-11-21T04:10:00;8.87;;;6.30;;
18726;SDS011;9492;51.888;5.186;2023-11-21T04:12:26;10.87;;;6.50;;
18726;SDS011;9492;51.888;5.186;2023-11-21T04:14:52;10.23;;;6.50;;
18726;SDS011;9492;51.888;5.186;2023-11-21T04:17:18;9.87;;;7.07;;
18726;SDS011;9492;51.888;5.186;2023-11-21T04:19:45;9.67;;;7.20;;
18726;SDS011;9492;51.888;5.186;2023-11-21T04:22:11;10.23;;;6.60;;
18726;SDS011;9492;51.888;5.186;2023-11-21T04:24:37;12.23;;;7.00;;
18726;SDS011;9492;51.888;5.186;2023-11-21T04:27:03;11.80;;;7.40;;
18726;SDS011;9492;51.888;5.186;2023-11-21T04:29:29;10.50;;;7.17;;
18726;SDS011;9492;51.888;5.186;2023-11-21T04:31:55;11.37;;;6.87;;
18726;SDS011;9492;51.888;5.186;2023-11-21T04:34:21;11.73;;;7.43;;
18726;SDS011;9492;51.888;5.186;2023-11-21T04:36:47;12.97;;;7.40;;
18726;SDS011;9492;51.888;5.186;2023-11-21T04:39:13;12.00;;;7.47;;
18726;SDS011;9492;51.888;5.186;2023-11-21T04:41:39;12.33;;;7.23;;
18726;SDS011;9492;51.888;5.186;2023-11-21T04:44:06;13.07;;;7.43;;
18726;SDS011;9492;51.888;5.186;2023-11-21T04:46:32;13.83;;;7.60;;
18726;SDS011;9492;51.888;5.186;2023-11-21T04:48:58;13.20;;;8.00;;
18726;SDS011;9492;51.888;5.186;2023-11-21T04:51:24;10.73;;;7.47;;
18726;SDS011;9492;51.888;5.186;2023-11-21T04:53:50;13.93;;;7.50;;
18726;SDS011;9492;51.888;5.186;2023-11-21T04:56:16;11.83;;;7.33;;
18726;SDS011;9492;51.888;5.186;2023-11-21T04:58:42;9.20;;;6.57;;
18726;SDS011;9492;51.888;5.186;2023-11-21T05:01:08;8.77;;;6.80;;
18726;SDS011;9492;51.888;5.186;2023-11-21T05:03:34;11.37;;;6.80;;
18726;SDS011;9492;51.888;5.186;2023-11-21T05:06:00;12.70;;;7.77;;
18726;SDS011;9492;51.888;5.186;2023-11-21T05:08:26;10.50;;;7.53;;
18726;SDS011;9492;51.888;5.186;2023-11-21T05:10:52;13.33;;;7.67;;
18726;SDS011;9492;51.888;5.186;2023-11-21T05:13:18;10.57;;;6.83;;
18726;SDS011;9492;51.888;5.186;2023-11-21T05:15:45;15.40;;;7.57;;
18726;SDS011;9492;51.888;5.186;2023-11-21T05:18:11;10.30;;;7.27;;
18726;SDS011;9492;51.888;5.186;2023-11-21T05:20:38;9.77;;;6.90;;
18726;SDS011;9492;51.888;5.186;2023-11-21T05:23:05;11.07;;;7.10;;
18726;SDS011;9492;51.888;5.186;2023-11-21T05:25:31;12.20;;;6.97;;
18726;SDS011;9492;51.888;5.186;2023-11-21T05:27:57;15.37;;;7.00;;
18726;SDS011;9492;51.888;5.186;2023-11-21T05:30:26;14.30;;;7.27;;
18726;SDS011;9492;51.888;5.186;2023-11-21T05:32:53;11.47;;;7.10;;
18726;SDS011;9492;51.888;5.186;2023-11-21T05:35:19;10.27;;;6.60;;
18726;SDS011;9492;51.888;5.186;2023-11-21T05:37:46;16.73;;;8.03;;
18726;SDS011;9492;51.888;5.186;2023-11-21T05:40:12;10.27;;;7.03;;
18726;SDS011;9492;51.888;5.186;2023-11-21T05:42:39;11.57;;;7.00;;
18726;SDS011;9492;51.888;5.186;2023-11-21T05:45:05;13.20;;;7.10;;
18726;SDS011;9492;51.888;5.186;2023-11-21T05:47:39;10.57;;;6.80;;
18726;SDS011;9492;51.888;5.186;2023-11-21T05:50:05;11.97;;;7.23;;
18726;SDS011;9492;51.888;5.186;2023-11-21T05:52:34;12.73;;;7.53;;
18726;SDS011;9492;51.888;5.186;2023-11-21T05:55:00;10.80;;;7.00;;
18726;SDS011;9492;51.888;5.186;2023-11-21T05:57:26;11.83;;;7.97;;
18726;SDS011;9492;51.888;5.186;2023-11-21T05:59:52;10.37;;;7.23;;
18726;SDS011;9492;51.888;5.186;2023-11-21T06:02:18;12.73;;;6.90;;
18726;SDS011;9492;51.888;5.186;2023-11-21T06:04:44;10.50;;;7.03;;
18726;SDS011;9492;51.888;5.186;2023-11-21T06:07:10;14.97;;;7.23;;
18726;SDS011;9492;51.888;5.186;2023-11-21T06:09:36;11.80;;;6.70;;
18726;SDS011;9492;51.888;5.186;2023-11-21T06:12:02;14.03;;;7.97;;
18726;SDS011;9492;51.888;5.186;2023-11-21T06:14:29;10.30;;;7.07;;
18726;SDS011;9492;51.888;5.186;2023-11-21T06:16:55;12.80;;;7.63;;
18726;SDS011;9492;51.888;5.186;2023-11-21T06:19:22;10.77;;;6.73;;
18726;SDS011;9492;51.888;5.186;2023-11-21T06:21:48;12.50;;;6.93;;
18726;SDS011;9492;51.888;5.186;2023-11-21T06:24:14;9.07;;;6.67;;
18726;SDS011;9492;51.888;5.186;2023-11-21T06:26:40;10.97;;;6.63;;
18726;SDS011;9492;51.888;5.186;2023-11-21T06:29:06;11.30;;;6.73;;
18726;SDS011;9492;51.888;5.186;2023-11-21T06:31:32;9.13;;;7.20;;
18726;SDS011;9492;51.888;5.186;2023-11-21T06:33:58;10.97;;;7.07;;
18726;SDS011;9492;51.888;5.186;2023-11-21T06:36:28;10.80;;;6.57;;
18726;SDS011;9492;51.888;5.186;2023-11-21T06:38:54;12.90;;;7.10;;
18726;SDS011;9492;51.888;5.186;2023-11-21T06:41:20;15.17;;;7.47;;
18726;SDS011;9492;51.888;5.186;2023-11-21T06:43:46;10.83;;;6.00;;
18726;SDS011;9492;51.888;5.186;2023-11-21T06:46:12;11.17;;;5.97;;
18726;SDS011;9492;51.888;5.186;2023-11-21T06:48:40;11.63;;;6.80;;
18726;SDS011;9492;51.888;5.186;2023-11-21T06:51:06;10.37;;;6.23;;
18726;SDS011;9492;51.888;5.186;2023-11-21T06:53:32;9.90;;;6.03;;
18726;SDS011;9492;51.888;5.186;2023-11-21T06:55:58;10.90;;;6.10;;
18726;SDS011;9492;51.888;5.186;2023-11-21T06:58:24;8.97;;;5.77;;
18726;SDS011;9492;51.888;5.186;2023-11-21T07:00:50;11.37;;;7.33;;
18726;SDS011;9492;51.888;5.186;2023-11-21T07:03:17;12.00;;;7.20;;
18726;SDS011;9492;51.888;5.186;2023-11-21T07:05:44;11.60;;;7.23;;
18726;SDS011;9492;51.888;5.186;2023-11-21T07:08:10;10.37;;;6.73;;
18726;SDS011;9492;51.888;5.186;2023-11-21T07:10:37;11.20;;;6.73;;
18726;SDS011;9492;51.888;5.186;2023-11-21T07:13:03;11.30;;;7.27;;
18726;SDS011;9492;51.888;5.186;2023-11-21T07:15:30;12.07;;;7.43;;
18726;SDS011;9492;51.888;5.186;2023-11-21T07:17:56;12.10;;;7.50;;
18726;SDS011;9492;51.888;5.186;2023-11-21T07:20:22;13.33;;;7.00;;
18726;SDS011;9492;51.888;5.186;2023-11-21T07:22:48;11.10;;;6.80;;
18726;SDS011;9492;51.888;5.186;2023-11-21T07:25:15;10.60;;;6.93;;
18726;SDS011;9492;51.888;5.186;2023-11-21T07:27:41;8.63;;;6.03;;
18726;SDS011;9492;51.888;5.186;2023-11-21T07:30:07;13.00;;;7.37;;
18726;SDS011;9492;51.888;5.186;2023-11-21T07:32:34;9.57;;;6.60;;
18726;SDS011;9492;51.888;5.186;2023-11-21T07:35:00;12.30;;;7.30;;
18726;SDS011;9492;51.888;5.186;2023-11-21T07:37:26;9.43;;;6.27;;
18726;SDS011;9492;51.888;5.186;2023-11-21T07:39:55;10.63;;;6.73;;
18726;SDS011;9492;51.888;5.186;2023-11-21T07:42:23;9.70;;;6.40;;
18726;SDS011;9492;51.888;5.186;2023-11-21T07:44:51;8.20;;;6.67;;
18726;SDS011;9492;51.888;5.186;2023-11-21T07:47:17;11.00;;;6.80;;
18726;SDS011;9492;51.888;5.186;2023-11-21T07:49:43;9.70;;;6.27;;
18726;SDS011;9492;51.888;5.186;2023-11-21T07:52:10;10.83;;;6.80;;
18726;SDS011;9492;51.888;5.186;2023-11-21T07:54:36;9.77;;;6.00;;
18726;SDS011;9492;51.888;5.186;2023-11-21T07:57:02;10.53;;;5.93;;
18726;SDS011;9492;51.888;5.186;2023-11-21T07:59:29;9.47;;;6.17;;
18726;SDS011;9492;51.888;5.186;2023-11-21T08:01:55;7.23;;;4.90;;
18726;SDS011;9492;51.888;5.186;2023-11-21T08:04:21;7.63;;;5.80;;
18726;SDS011;9492;51.888;5.186;2023-11-21T08:06:48;8.43;;;6.00;;
18726;SDS011;9492;51.888;5.186;2023-11-21T08:09:14;6.77;;;5.13;;
18726;SDS011;9492;51.888;5.186;2023-11-21T08:11:42;6.93;;;5.30;;
18726;SDS011;9492;51.888;5.186;2023-11-21T08:14:08;8.07;;;5.33;;
18726;SDS011;9492;51.888;5.186;2023-11-21T08:16:34;5.67;;;5.07;;
18726;SDS011;9492;51.888;5.186;2023-11-21T08:19:00;8.00;;;5.30;;
18726;SDS011;9492;51.888;5.186;2023-11-21T08:21:27;8.60;;;5.50;;
18726;SDS011;9492;51.888;5.186;2023-11-21T08:23:54;8.83;;;4.63;;
18726;SDS011;9492;51.888;5.186;2023-11-21T08:26:23;6.73;;;4.63;;
18726;SDS011;9492;51.888;5.186;2023-11-21T08:28:49;6.70;;;4.60;;
18726;SDS011;9492;51.888;5.186;2023-11-21T08:31:22;5.73;;;4.30;;
18726;SDS011;9492;51.888;5.186;2023-11-21T08:33:49;6.90;;;4.70;;
18726;SDS011;9492;51.888;5.186;2023-11-21T08:36:15;5.80;;;4.30;;
18726;SDS011;9492;51.888;5.186;2023-11-21T08:38:41;5.93;;;4.07;;
18726;SDS011;9492;51.888;5.186;2023-11-21T08:41:07;5.53;;;4.10;;
18726;SDS011;9492;51.888;5.186;2023-11-21T08:43:34;7.10;;;4.00;;
18726;SDS011;9492;51.888;5.186;2023-11-21T08:46:00;7.77;;;4.90;;
18726;SDS011;9492;51.888;5.186;2023-11-21T08:48:27;6.13;;;4.00;;
18726;SDS011;9492;51.888;5.186;2023-11-21T08:50:54;4.20;;;3.80;;
18726;SDS011;9492;51.888;5.186;2023-11-21T08:53:21;7.23;;;4.33;;
18726;SDS011;9492;51.888;5.186;2023-11-21T08:55:47;5.23;;;3.53;;
18726;SDS011;9492;51.888;5.186;2023-11-21T08:58:15;10.10;;;3.80;;
18726;SDS011;9492;51.888;5.186;2023-11-21T09:00:41;6.30;;;4.30;;
18726;SDS011;9492;51.888;5.186;2023-11-21T09:03:07;6.33;;;3.63;;
18726;SDS011;9492;51.888;5.186;2023-11-21T09:05:33;4.73;;;4.00;;
18726;SDS011;9492;51.888;5.186;2023-11-21T09:07:59;4.53;;;3.57;;
18726;SDS011;9492;51.888;5.186;2023-11-21T09:10:26;4.67;;;3.40;;
18726;SDS011;9492;51.888;5.186;2023-11-21T09:12:53;5.30;;;3.40;;
18726;SDS011;9492;51.888;5.186;2023-11-21T09:15:19;5.93;;;3.83;;
18726;SDS011;9492;51.888;5.186;2023-11-21T09:17:45;4.33;;;3.60;;
18726;SDS011;9492;51.888;5.186;2023-11-21T09:20:11;5.60;;;3.73;;
18726;SDS011;9492;51.888;5.186;2023-11-21T09:22:39;4.57;;;3.70;;
18726;SDS011;9492;51.888;5.186;2023-11-21T09:25:05;5.40;;;3.73;;
18726;SDS011;9492;51.888;5.186;2023-11-21T09:27:33;3.97;;;3.47;;
18726;SDS011;9492;51.888;5.186;2023-11-21T09:30:00;5.27;;;4.30;;
18726;SDS011;9492;51.888;5.186;2023-11-21T09:32:26;7.30;;;5.00;;
18726;SDS011;9492;51.888;5.186;2023-11-21T09:34:52;7.40;;;4.40;;
18726;SDS011;9492;51.888;5.186;2023-11-21T09:37:22;4.50;;;4.03;;
18726;SDS011;9492;51.888;5.186;2023-11-21T09:39:49;5.83;;;3.40;;
18726;SDS011;9492;51.888;5.186;2023-11-21T09:42:17;5.40;;;3.60;;
18726;SDS011;9492;51.888;5.186;2023-11-21T09:44:48;7.47;;;3.90;;
18726;SDS011;9492;51.888;5.186;2023-11-21T09:47:18;3.70;;;3.03;;
18726;SDS011;9492;51.888;5.186;2023-11-21T09:49:48;4.37;;;3.07;;
18726;SDS011;9492;51.888;5.186;2023-11-21T09:52:25;4.50;;;3.00;;
18726;SDS011;9492;51.888;5.186;2023-11-21T09:54:52;5.33;;;2.97;;
18726;SDS011;9492;51.888;5.186;2023-11-21T09:57:19;2.97;;;2.67;;
18726;SDS011;9492;51.888;5.186;2023-11-21T09:59:47;4.10;;;3.20;;
18726;SDS011;9492;51.888;5.186;2023-11-21T10:02:16;5.17;;;3.20;;
18726;SDS011;9492;51.888;5.186;2023-11-21T10:04:45;5.30;;;3.33;;
18726;SDS011;9492;51.888;5.186;2023-11-21T10:07:13;4.80;;;3.47;;
18726;SDS011;9492;51.888;5.186;2023-11-21T10:09:42;6.00;;;3.63;;
18726;SDS011;9492;51.888;5.186;2023-11-21T10:12:08;4.50;;;3.40;;
18726;SDS011;9492;51.888;5.186;2023-11-21T10:14:36;5.00;;;3.67;;
18726;SDS011;9492;51.888;5.186;2023-11-21T10:17:02;5.67;;;3.60;;
18726;SDS011;9492;51.888;5.186;2023-11-21T10:19:30;4.43;;;3.60;;
18726;SDS011;9492;51.888;5.186;2023-11-21T10:21:57;4.17;;;3.70;;
18726;SDS011;9492;51.888;5.186;2023-11-21T10:24:25;8.30;;;4.67;;
18726;SDS011;9492;51.888;5.186;2023-11-21T10:26:51;4.23;;;3.77;;
18726;SDS011;9492;51.888;5.186;2023-11-21T10:29:18;7.00;;;4.47;;
18726;SDS011;9492;51.888;5.186;2023-11-21T10:31:48;4.97;;;4.00;;
18726;SDS011;9492;51.888;5.186;2023-11-21T10:34:15;6.17;;;4.50;;
18726;SDS011;9492;51.888;5.186;2023-11-21T10:36:41;5.07;;;3.93;;
18726;SDS011;9492;51.888;5.186;2023-11-21T10:39:07;4.63;;;3.83;;
18726;SDS011;9492;51.888;5.186;2023-11-21T10:41:34;5.37;;;3.97;;
18726;SDS011;9492;51.888;5.186;2023-11-21T10:44:01;9.20;;;4.80;;
18726;SDS011;9492;51.888;5.186;2023-11-21T10:46:31;6.27;;;4.83;;
18726;SDS011;9492;51.888;5.186;2023-11-21T10:48:57;8.57;;;4.27;;
18726;SDS011;9492;51.888;5.186;2023-11-21T10:51:23;6.97;;;4.10;;
18726;SDS011;9492;51.888;5.186;2023-11-21T10:53:51;6.20;;;4.57;;
18726;SDS011;9492;51.888;5.186;2023-11-21T10:56:17;6.47;;;4.27;;
18726;SDS011;9492;51.888;5.186;2023-11-21T10:58:46;7.40;;;5.33;;
18726;SDS011;9492;51.888;5.186;2023-11-21T11:01:14;5.67;;;4.53;;
18726;SDS011;9492;51.888;5.186;2023-11-21T11:03:41;7.00;;;4.90;;
18726;SDS011;9492;51.888;5.186;2023-11-21T11:06:07;8.23;;;5.10;;
18726;SDS011;9492;51.888;5.186;2023-11-21T11:08:36;7.13;;;4.27;;
18726;SDS011;9492;51.888;5.186;2023-11-21T11:11:02;6.43;;;5.10;;
18726;SDS011;9492;51.888;5.186;2023-11-21T11:13:28;6.63;;;4.67;;
18726;SDS011;9492;51.888;5.186;2023-11-21T11:15:57;6.93;;;4.53;;
18726;SDS011;9492;51.888;5.186;2023-11-21T11:18:27;8.27;;;5.07;;
18726;SDS011;9492;51.888;5.186;2023-11-21T11:20:54;6.87;;;5.30;;
18726;SDS011;9492;51.888;5.186;2023-11-21T11:31:17;6.77;;;4.93;;
18726;SDS011;9492;51.888;5.186;2023-11-21T11:33:59;6.17;;;4.67;;
18726;SDS011;9492;51.888;5.186;2023-11-21T11:38:59;13.20;;;7.60;;
18726;SDS011;9492;51.888;5.186;2023-11-21T11:41:27;8.63;;;6.27;;
18726;SDS011;9492;51.888;5.186;2023-11-21T11:43:54;5.93;;;4.80;;
18726;SDS011;9492;51.888;5.186;2023-11-21T11:46:20;6.50;;;4.87;;
18726;SDS011;9492;51.888;5.186;2023-11-21T11:49:06;7.83;;;5.87;;
18726;SDS011;9492;51.888;5.186;2023-11-21T11:51:33;8.97;;;6.10;;
18726;SDS011;9492;51.888;5.186;2023-11-21T11:54:00;9.73;;;6.03;;
18726;SDS011;9492;51.888;5.186;2023-11-21T11:56:30;8.50;;;6.47;;
18726;SDS011;9492;51.888;5.186;2023-11-21T11:59:00;9.47;;;6.10;;
18726;SDS011;9492;51.888;5.186;2023-11-21T12:01:33;8.80;;;5.73;;
18726;SDS011;9492;51.888;5.186;2023-11-21T12:06:56;7.30;;;5.10;;
18726;SDS011;9492;51.888;5.186;2023-11-21T12:09:25;8.87;;;5.77;;
18726;SDS011;9492;51.888;5.186;2023-11-21T12:11:52;7.17;;;5.27;;
18726;SDS011;9492;51.888;5.186;2023-11-21T12:14:21;7.93;;;5.20;;
18726;SDS011;9492;51.888;5.186;2023-11-21T12:16:48;7.83;;;5.03;;
18726;SDS011;9492;51.888;5.186;2023-11-21T12:19:14;10.17;;;6.77;;
18726;SDS011;9492;51.888;5.186;2023-11-21T12:21:40;8.53;;;5.40;;
18726;SDS011;9492;51.888;5.186;2023-11-21T12:24:07;7.63;;;5.43;;
18726;SDS011;9492;51.888;5.186;2023-11-21T12:26:39;9.23;;;6.17;;
18726;SDS011;9492;51.888;5.186;2023-11-21T12:29:05;8.20;;;5.67;;
18726;SDS011;9492;51.888;5.186;2023-11-21T12:31:32;7.57;;;4.93;;
18726;SDS011;9492;51.888;5.186;2023-11-21T12:33:59;8.57;;;5.67;;
18726;SDS011;9492;51.888;5.186;2023-11-21T12:36:25;11.27;;;5.60;;
18726;SDS011;9492;51.888;5.186;2023-11-21T12:38:54;7.90;;;5.60;;
18726;SDS011;9492;51.888;5.186;2023-11-21T12:41:20;8.13;;;5.43;;
18726;SDS011;9492;51.888;5.186;2023-11-21T12:43:46;7.87;;;5.03;;
18726;SDS011;9492;51.888;5.186;2023-11-21T12:46:13;7.30;;;5.63;;
18726;SDS011;9492;51.888;5.186;2023-11-21T12:48:43;7.20;;;4.87;;
18726;SDS011;9492;51.888;5.186;2023-11-21T12:51:10;7.50;;;5.10;;
18726;SDS011;9492;51.888;5.186;2023-11-21T12:53:39;5.67;;;4.77;;
18726;SDS011;9492;51.888;5.186;2023-11-21T12:56:12;7.43;;;4.67;;
18726;SDS011;9492;51.888;5.186;2023-11-21T12:58:43;7.10;;;5.00;;
18726;SDS011;9492;51.888;5.186;2023-11-21T13:01:12;6.90;;;5.03;;
18726;SDS011;9492;51.888;5.186;2023-11-21T13:03:43;8.67;;;6.07;;
18726;SDS011;9492;51.888;5.186;2023-11-21T13:06:10;7.80;;;5.07;;
18726;SDS011;9492;51.888;5.186;2023-11-21T13:08:37;7.80;;;5.07;;
18726;SDS011;9492;51.888;5.186;2023-11-21T13:11:04;6.83;;;4.80;;
18726;SDS011;9492;51.888;5.186;2023-11-21T13:13:31;8.83;;;6.43;;
18726;SDS011;9492;51.888;5.186;2023-11-21T13:15:59;9.13;;;6.50;;
18726;SDS011;9492;51.888;5.186;2023-11-21T13:18:26;9.37;;;7.10;;
18726;SDS011;9492;51.888;5.186;2023-11-21T13:20:56;8.23;;;6.23;;
18726;SDS011;9492;51.888;5.186;2023-11-21T13:23:23;8.90;;;6.10;;
18726;SDS011;9492;51.888;5.186;2023-11-21T13:25:49;10.00;;;6.73;;
18726;SDS011;9492;51.888;5.186;2023-11-21T13:28:15;8.57;;;5.97;;
18726;SDS011;9492;51.888;5.186;2023-11-21T13:30:43;11.33;;;7.80;;
18726;SDS011;9492;51.888;5.186;2023-11-21T13:33:10;9.60;;;6.77;;
18726;SDS011;9492;51.888;5.186;2023-11-21T13:35:42;10.33;;;7.10;;
18726;SDS011;9492;51.888;5.186;2023-11-21T13:38:13;11.73;;;7.63;;
18726;SDS011;9492;51.888;5.186;2023-11-21T13:40:41;13.23;;;8.83;;
18726;SDS011;9492;51.888;5.186;2023-11-21T13:43:12;15.90;;;8.47;;
18726;SDS011;9492;51.888;5.186;2023-11-21T13:45:38;11.53;;;8.50;;
18726;SDS011;9492;51.888;5.186;2023-11-21T13:48:05;12.23;;;7.97;;
18726;SDS011;9492;51.888;5.186;2023-11-21T13:50:35;11.53;;;7.87;;
18726;SDS011;9492;51.888;5.186;2023-11-21T13:53:02;10.80;;;7.30;;
18726;SDS011;9492;51.888;5.186;2023-11-21T13:55:41;10.97;;;7.73;;
18726;SDS011;9492;51.888;5.186;2023-11-21T13:58:07;9.40;;;6.57;;
18726;SDS011;9492;51.888;5.186;2023-11-21T14:00:37;11.00;;;7.30;;
18726;SDS011;9492;51.888;5.186;2023-11-21T14:03:21;11.23;;;7.37;;
18726;SDS011;9492;51.888;5.186;2023-11-21T14:05:48;11.00;;;6.30;;
18726;SDS011;9492;51.888;5.186;2023-11-21T14:08:22;11.53;;;6.80;;
18726;SDS011;9492;51.888;5.186;2023-11-21T14:10:53;9.10;;;6.37;;
18726;SDS011;9492;51.888;5.186;2023-11-21T14:13:24;9.80;;;6.20;;
18726;SDS011;9492;51.888;5.186;2023-11-21T14:15:50;9.27;;;6.63;;
18726;SDS011;9492;51.888;5.186;2023-11-21T14:18:22;9.20;;;6.83;;
18726;SDS011;9492;51.888;5.186;2023-11-21T14:20:55;7.87;;;6.40;;
18726;SDS011;9492;51.888;5.186;2023-11-21T14:23:21;9.57;;;6.77;;
18726;SDS011;9492;51.888;5.186;2023-11-21T14:25:48;10.50;;;6.33;;
18726;SDS011;9492;51.888;5.186;2023-11-21T14:28:15;9.17;;;6.33;;
18726;SDS011;9492;51.888;5.186;2023-11-21T14:30:41;7.93;;;5.67;;
18726;SDS011;9492;51.888;5.186;2023-11-21T14:33:08;7.13;;;5.63;;
18726;SDS011;9492;51.888;5.186;2023-11-21T14:35:36;8.13;;;5.33;;
18726;SDS011;9492;51.888;5.186;2023-11-21T14:38:02;8.13;;;5.60;;
18726;SDS011;9492;51.888;5.186;2023-11-21T14:40:32;8.17;;;5.37;;
18726;SDS011;9492;51.888;5.186;2023-11-21T14:43:01;5.90;;;4.50;;
18726;SDS011;9492;51.888;5.186;2023-11-21T14:45:27;6.97;;;4.50;;
18726;SDS011;9492;51.888;5.186;2023-11-21T14:47:54;8.03;;;5.37;;
18726;SDS011;9492;51.888;5.186;2023-11-21T14:50:29;6.03;;;4.60;;
18726;SDS011;9492;51.888;5.186;2023-11-21T14:53:08;4.63;;;3.50;;
18726;SDS011;9492;51.888;5.186;2023-11-21T14:55:34;4.07;;;3.33;;
18726;SDS011;9492;51.888;5.186;2023-11-21T14:58:21;4.67;;;3.20;;
18726;SDS011;9492;51.888;5.186;2023-11-21T15:00:57;4.47;;;3.13;;
18726;SDS011;9492;51.888;5.186;2023-11-21T15:03:25;6.07;;;3.90;;
18726;SDS011;9492;51.888;5.186;2023-11-21T15:06:01;5.37;;;4.20;;
18726;SDS011;9492;51.888;5.186;2023-11-21T15:08:54;8.40;;;5.47;;